sensor_id;sensor_type;location;lat;lon;timestamp;temperature;humidity
1978;DHT22;989;53.016;8.346;2023-02-12T00:01:07;8.50;99.90
1978;DHT22;989;53.016;8.346;2023-02-12T00:03:35;8.50;99.90
1978;DHT22;989;53.016;8.346;2023-02-12T00:06:01;8.50;99.90
1978;DHT22;989;53.016;8.346;2023-02-12T00:08:27;8.40;99.90
1978;DHT22;989;53.016;8.346;2023-02-12T00:10:53;8.40;99.90
1978;DHT22;989;53.016;8.346;2023-02-12T00:13:18;8.40;99.90
1978;DHT22;989;53.016;8.346;2023-02-12T00:15:44;8.40;99.90
1978;DHT22;989;53.016;8.346;2023-02-12T00:18:09;8.30;99.90
1978;DHT22;989;53.016;8.346;2023-02-12T00:20:38;8.40;99.90
1978;DHT22;989;53.016;8.346;2023-02-12T00:23:04;8.30;99.90
1978;DHT22;989;53.016;8.346;2023-02-12T00:25:30;8.40;99.90
1978;DHT22;989;53.016;8.346;2023-02-12T00:27:56;8.30;99.90
1978;DHT22;989;53.016;8.346;2023-02-12T00:30:22;8.30;99.90
1978;DHT22;989;53.016;8.346;2023-02-12T00:32:48;8.30;99.90
1978;DHT22;989;53.016;8.346;2023-02-12T00:35:14;8.30;99.90
1978;DHT22;989;53.016;8.346;2023-02-12T00:37:40;8.30;99.90
1978;DHT22;989;53.016;8.346;2023-02-12T00:40:07;8.30;99.90
1978;DHT22;989;53.016;8.346;2023-02-12T00:42:33;8.20;99.90
1978;DHT22;989;53.016;8.346;2023-02-12T00:44:59;8.20;99.90
1978;DHT22;989;53.016;8.346;2023-02-12T00:47:25;8.20;99.90
1978;DHT22;989;53.016;8.346;2023-02-12T00:49:50;8.20;99.90
1978;DHT22;989;53.016;8.346;2023-02-12T00:52:16;8.20;99.90
1978;DHT22;989;53.016;8.346;2023-02-12T00:54:42;8.20;99.90
1978;DHT22;989;53.016;8.346;2023-02-12T00:57:07;8.20;99.90
1978;DHT22;989;53.016;8.346;2023-02-12T00:59:33;8.20;99.90
1978;DHT22;989;53.016;8.346;2023-02-12T01:02:02;8.10;99.90
1978;DHT22;989;53.016;8.346;2023-02-12T01:04:28;8.20;99.90
1978;DHT22;989;53.016;8.346;2023-02-12T01:06:54;8.10;99.90
1978;DHT22;989;53.016;8.346;2023-02-12T01:09:19;8.20;99.90
1978;DHT22;989;53.016;8.346;2023-02-12T01:11:45;8.20;99.90
1978;DHT22;989;53.016;8.346;2023-02-12T01:14:11;8.20;99.90
1978;DHT22;989;53.016;8.346;2023-02-12T01:16:36;8.20;99.90
1978;DHT22;989;53.016;8.346;2023-02-12T01:19:03;8.20;99.90
1978;DHT22;989;53.016;8.346;2023-02-12T01:21:32;8.20;99.90
1978;DHT22;989;53.016;8.346;2023-02-12T01:23:59;8.20;99.90
1978;DHT22;989;53.016;8.346;2023-02-12T01:26:27;8.20;99.90
1978;DHT22;989;53.016;8.346;2023-02-12T01:29:02;8.10;99.90
1978;DHT22;989;53.016;8.346;2023-02-12T01:31:33;8.20;99.90
1978;DHT22;989;53.016;8.346;2023-02-12T01:34:02;8.30;99.90
1978;DHT22;989;53.016;8.346;2023-02-12T01:36:30;8.20;99.90
1978;DHT22;989;53.016;8.346;2023-02-12T01:38:56;8.20;99.90
1978;DHT22;989;53.016;8.346;2023-02-12T01:41:29;8.20;99.90
1978;DHT22;989;53.016;8.346;2023-02-12T01:44:16;8.20;99.90
1978;DHT22;989;53.016;8.346;2023-02-12T01:46:44;8.10;99.90
1978;DHT22;989;53.016;8.346;2023-02-12T01:49:17;8.20;99.90
1978;DHT22;989;53.016;8.346;2023-02-12T01:51:45;8.10;99.90
1978;DHT22;989;53.016;8.346;2023-02-12T01:54:14;8.20;99.90
1978;DHT22;989;53.016;8.346;2023-02-12T01:56:42;8.20;99.90
1978;DHT22;989;53.016;8.346;2023-02-12T01:59:08;8.10;99.90
1978;DHT22;989;53.016;8.346;2023-02-12T02:01:34;8.20;99.90
1978;DHT22;989;53.016;8.346;2023-02-12T02:04:04;8.10;99.90
1978;DHT22;989;53.016;8.346;2023-02-12T02:06:45;8.20;99.90
1978;DHT22;989;53.016;8.346;2023-02-12T02:09:15;8.20;99.90
1978;DHT22;989;53.016;8.346;2023-02-12T02:11:41;8.20;99.90
1978;DHT22;989;53.016;8.346;2023-02-12T02:14:25;8.10;99.90
1978;DHT22;989;53.016;8.346;2023-02-12T02:34:57;8.30;99.90
1978;DHT22;989;53.016;8.346;2023-02-12T02:37:46;8.20;99.90
1978;DHT22;989;53.016;8.346;2023-02-12T02:40:24;8.20;99.90
1978;DHT22;989;53.016;8.346;2023-02-12T02:43:03;8.20;99.90
1978;DHT22;989;53.016;8.346;2023-02-12T02:45:54;8.10;99.90
1978;DHT22;989;53.016;8.346;2023-02-12T02:48:25;8.10;99.90
1978;DHT22;989;53.016;8.346;2023-02-12T02:51:00;8.10;99.90
1978;DHT22;989;53.016;8.346;2023-02-12T02:53:32;8.20;99.90
1978;DHT22;989;53.016;8.346;2023-02-12T02:56:02;8.20;99.90
1978;DHT22;989;53.016;8.346;2023-02-12T02:58:37;8.10;99.90
1978;DHT22;989;53.016;8.346;2023-02-12T03:06:43;8.10;99.90
1978;DHT22;989;53.016;8.346;2023-02-12T03:09:28;8.10;99.90
1978;DHT22;989;53.016;8.346;2023-02-12T03:12:00;8.20;99.90
1978;DHT22;989;53.016;8.346;2023-02-12T03:14:35;8.20;99.90
1978;DHT22;989;53.016;8.346;2023-02-12T03:17:18;8.20;99.90
1978;DHT22;989;53.016;8.346;2023-02-12T03:20:13;8.20;99.90
1978;DHT22;989;53.016;8.346;2023-02-12T03:22:46;8.10;99.90
1978;DHT22;989;53.016;8.346;2023-02-12T03:25:18;8.20;99.90
1978;DHT22;989;53.016;8.346;2023-02-12T03:30:24;8.20;99.90
1978;DHT22;989;53.016;8.346;2023-02-12T03:36:07;8.20;99.90
1978;DHT22;989;53.016;8.346;2023-02-12T03:38:47;8.30;99.90
1978;DHT22;989;53.016;8.346;2023-02-12T03:41:22;8.30;99.90
1978;DHT22;989;53.016;8.346;2023-02-12T03:43:58;8.20;99.90
1978;DHT22;989;53.016;8.346;2023-02-12T03:47:03;8.30;99.90
1978;DHT22;989;53.016;8.346;2023-02-12T03:49:49;8.20;99.90
1978;DHT22;989;53.016;8.346;2023-02-12T03:52:17;8.20;99.90
1978;DHT22;989;53.016;8.346;2023-02-12T03:54:42;8.20;99.90
1978;DHT22;989;53.016;8.346;2023-02-12T03:57:18;8.20;99.90
1978;DHT22;989;53.016;8.346;2023-02-12T03:59:47;8.30;99.90
1978;DHT22;989;53.016;8.346;2023-02-12T04:02:14;8.30;99.90
1978;DHT22;989;53.016;8.346;2023-02-12T04:04:42;8.20;99.90
1978;DHT22;989;53.016;8.346;2023-02-12T04:07:09;8.20;99.90
1978;DHT22;989;53.016;8.346;2023-02-12T04:09:34;8.20;99.90
1978;DHT22;989;53.016;8.346;2023-02-12T04:15:36;8.30;99.90
1978;DHT22;989;53.016;8.346;2023-02-12T04:18:18;8.20;99.90
1978;DHT22;989;53.016;8.346;2023-02-12T04:23:49;8.20;99.90
1978;DHT22;989;53.016;8.346;2023-02-12T04:26:46;8.20;99.90
1978;DHT22;989;53.016;8.346;2023-02-12T04:32:30;8.20;99.90
1978;DHT22;989;53.016;8.346;2023-02-12T04:35:06;8.20;99.90
1978;DHT22;989;53.016;8.346;2023-02-12T04:37:49;8.30;99.90
1978;DHT22;989;53.016;8.346;2023-02-12T04:40:18;8.20;99.90
1978;DHT22;989;53.016;8.346;2023-02-12T04:42:47;8.20;99.90
1978;DHT22;989;53.016;8.346;2023-02-12T04:45:29;8.20;99.90
1978;DHT22;989;53.016;8.346;2023-02-12T04:47:57;8.30;99.90
1978;DHT22;989;53.016;8.346;2023-02-12T04:50:24;8.30;99.90
1978;DHT22;989;53.016;8.346;2023-02-12T04:52:50;8.20;99.90
1978;DHT22;989;53.016;8.346;2023-02-12T04:55:16;8.40;99.90
1978;DHT22;989;53.016;8.346;2023-02-12T04:57:43;8.30;99.90
1978;DHT22;989;53.016;8.346;2023-02-12T05:00:11;8.30;99.90
1978;DHT22;989;53.016;8.346;2023-02-12T05:02:39;8.30;99.90
1978;DHT22;989;53.016;8.346;2023-02-12T05:05:05;8.30;99.90
1978;DHT22;989;53.016;8.346;2023-02-12T05:07:31;8.20;99.90
1978;DHT22;989;53.016;8.346;2023-02-12T05:09:57;8.20;99.90
1978;DHT22;989;53.016;8.346;2023-02-12T05:12:22;8.30;99.90
1978;DHT22;989;53.016;8.346;2023-02-12T05:14:48;8.30;99.90
1978;DHT22;989;53.016;8.346;2023-02-12T05:17:13;8.30;99.90
1978;DHT22;989;53.016;8.346;2023-02-12T05:19:39;8.30;99.90
1978;DHT22;989;53.016;8.346;2023-02-12T05:22:05;8.30;99.90
1978;DHT22;989;53.016;8.346;2023-02-12T05:24:30;8.30;99.90
1978;DHT22;989;53.016;8.346;2023-02-12T05:26:56;8.30;99.90
1978;DHT22;989;53.016;8.346;2023-02-12T05:29:22;8.30;99.90
1978;DHT22;989;53.016;8.346;2023-02-12T05:31:47;8.30;99.90
1978;DHT22;989;53.016;8.346;2023-02-12T05:34:13;8.40;99.90
1978;DHT22;989;53.016;8.346;2023-02-12T05:36:39;8.20;99.90
1978;DHT22;989;53.016;8.346;2023-02-12T05:39:06;8.30;99.90
1978;DHT22;989;53.016;8.346;2023-02-12T05:41:32;8.30;99.90
1978;DHT22;989;53.016;8.346;2023-02-12T05:44:03;8.30;99.90
1978;DHT22;989;53.016;8.346;2023-02-12T05:46:30;8.30;99.90
1978;DHT22;989;53.016;8.346;2023-02-12T05:48:56;8.40;99.90
1978;DHT22;989;53.016;8.346;2023-02-12T05:51:24;8.40;99.90
1978;DHT22;989;53.016;8.346;2023-02-12T05:53:55;8.30;99.90
1978;DHT22;989;53.016;8.346;2023-02-12T05:56:24;8.40;99.90
1978;DHT22;989;53.016;8.346;2023-02-12T05:59:11;8.30;99.90
1978;DHT22;989;53.016;8.346;2023-02-12T06:01:43;8.20;99.90
1978;DHT22;989;53.016;8.346;2023-02-12T06:04:14;8.30;99.90
1978;DHT22;989;53.016;8.346;2023-02-12T06:06:44;8.20;99.90
1978;DHT22;989;53.016;8.346;2023-02-12T06:09:11;8.20;99.90
1978;DHT22;989;53.016;8.346;2023-02-12T06:11:37;8.20;99.90
1978;DHT22;989;53.016;8.346;2023-02-12T06:14:05;8.20;99.90
1978;DHT22;989;53.016;8.346;2023-02-12T06:16:32;8.30;99.90
1978;DHT22;989;53.016;8.346;2023-02-12T06:19:01;8.30;99.90
1978;DHT22;989;53.016;8.346;2023-02-12T06:21:28;8.30;99.90
1978;DHT22;989;53.016;8.346;2023-02-12T06:23:54;8.30;99.90
1978;DHT22;989;53.016;8.346;2023-02-12T06:26:20;8.20;99.90
1978;DHT22;989;53.016;8.346;2023-02-12T06:28:46;8.20;99.90
1978;DHT22;989;53.016;8.346;2023-02-12T06:31:30;8.30;99.90
1978;DHT22;989;53.016;8.346;2023-02-12T06:34:00;8.20;99.90
1978;DHT22;989;53.016;8.346;2023-02-12T06:36:27;8.20;99.90
1978;DHT22;989;53.016;8.346;2023-02-12T06:38:53;8.20;99.90
1978;DHT22;989;53.016;8.346;2023-02-12T06:41:19;8.30;99.90
1978;DHT22;989;53.016;8.346;2023-02-12T06:43:45;8.30;99.90
1978;DHT22;989;53.016;8.346;2023-02-12T06:46:12;8.30;99.90
1978;DHT22;989;53.016;8.346;2023-02-12T06:48:38;8.30;99.90
1978;DHT22;989;53.016;8.346;2023-02-12T06:51:09;8.30;99.90
1978;DHT22;989;53.016;8.346;2023-02-12T06:53:36;8.30;99.90
1978;DHT22;989;53.016;8.346;2023-02-12T06:56:04;8.30;99.90
1978;DHT22;989;53.016;8.346;2023-02-12T06:58:31;8.30;99.90
1978;DHT22;989;53.016;8.346;2023-02-12T07:01:07;8.30;99.90
1978;DHT22;989;53.016;8.346;2023-02-12T07:03:41;8.30;99.90
1978;DHT22;989;53.016;8.346;2023-02-12T07:06:08;8.30;99.90
1978;DHT22;989;53.016;8.346;2023-02-12T07:08:35;8.20;99.90
1978;DHT22;989;53.016;8.346;2023-02-12T07:11:01;8.30;99.90
1978;DHT22;989;53.016;8.346;2023-02-12T07:13:26;8.30;99.90
1978;DHT22;989;53.016;8.346;2023-02-12T07:15:52;8.30;99.90
1978;DHT22;989;53.016;8.346;2023-02-12T07:18:18;8.20;99.90
1978;DHT22;989;53.016;8.346;2023-02-12T07:20:43;8.30;99.90
1978;DHT22;989;53.016;8.346;2023-02-12T07:23:12;8.30;99.90
1978;DHT22;989;53.016;8.346;2023-02-12T07:25:38;8.30;99.90
1978;DHT22;989;53.016;8.346;2023-02-12T07:28:04;8.30;99.90
1978;DHT22;989;53.016;8.346;2023-02-12T07:30:29;8.40;99.90
1978;DHT22;989;53.016;8.346;2023-02-12T07:32:55;8.40;99.90
1978;DHT22;989;53.016;8.346;2023-02-12T07:35:21;8.50;99.90
1978;DHT22;989;53.016;8.346;2023-02-12T07:37:46;8.40;99.90
1978;DHT22;989;53.016;8.346;2023-02-12T07:40:12;8.40;99.90
1978;DHT22;989;53.016;8.346;2023-02-12T07:42:38;8.40;99.90
1978;DHT22;989;53.016;8.346;2023-02-12T07:45:04;8.40;99.90
1978;DHT22;989;53.016;8.346;2023-02-12T07:47:30;8.40;99.90
1978;DHT22;989;53.016;8.346;2023-02-12T07:49:56;8.60;99.90
1978;DHT22;989;53.016;8.346;2023-02-12T07:52:21;8.50;99.90
1978;DHT22;989;53.016;8.346;2023-02-12T07:54:47;8.60;99.90
1978;DHT22;989;53.016;8.346;2023-02-12T07:57:12;8.60;99.90
1978;DHT22;989;53.016;8.346;2023-02-12T07:59:38;8.60;99.90
1978;DHT22;989;53.016;8.346;2023-02-12T08:02:04;8.50;99.90
1978;DHT22;989;53.016;8.346;2023-02-12T08:04:29;8.60;99.90
1978;DHT22;989;53.016;8.346;2023-02-12T08:06:55;8.60;99.90
1978;DHT22;989;53.016;8.346;2023-02-12T08:09:27;8.60;99.90
1978;DHT22;989;53.016;8.346;2023-02-12T08:11:55;8.60;99.90
1978;DHT22;989;53.016;8.346;2023-02-12T08:14:21;8.60;99.90
1978;DHT22;989;53.016;8.346;2023-02-12T08:16:48;8.70;99.90
1978;DHT22;989;53.016;8.346;2023-02-12T08:19:15;8.70;99.90
1978;DHT22;989;53.016;8.346;2023-02-12T08:21:41;8.80;99.90
1978;DHT22;989;53.016;8.346;2023-02-12T08:24:08;8.80;99.90
1978;DHT22;989;53.016;8.346;2023-02-12T08:26:37;8.80;99.90
1978;DHT22;989;53.016;8.346;2023-02-12T08:29:12;9.00;99.90
1978;DHT22;989;53.016;8.346;2023-02-12T08:31:41;9.00;99.90
1978;DHT22;989;53.016;8.346;2023-02-12T08:34:16;8.90;99.90
1978;DHT22;989;53.016;8.346;2023-02-12T08:36:44;8.80;99.90
1978;DHT22;989;53.016;8.346;2023-02-12T08:39:11;8.70;99.90
1978;DHT22;989;53.016;8.346;2023-02-12T08:41:37;8.80;99.90
1978;DHT22;989;53.016;8.346;2023-02-12T08:44:04;8.80;99.90
1978;DHT22;989;53.016;8.346;2023-02-12T08:46:32;8.90;99.90
1978;DHT22;989;53.016;8.346;2023-02-12T08:49:02;8.90;99.90
1978;DHT22;989;53.016;8.346;2023-02-12T08:51:34;8.90;99.90
1978;DHT22;989;53.016;8.346;2023-02-12T08:54:05;9.00;99.90
1978;DHT22;989;53.016;8.346;2023-02-12T08:56:33;9.00;99.90
1978;DHT22;989;53.016;8.346;2023-02-12T08:59:01;9.10;99.90
1978;DHT22;989;53.016;8.346;2023-02-12T09:01:30;9.00;99.90
1978;DHT22;989;53.016;8.346;2023-02-12T09:03:58;9.10;99.90
1978;DHT22;989;53.016;8.346;2023-02-12T09:06:25;9.20;99.90
1978;DHT22;989;53.016;8.346;2023-02-12T09:08:54;9.20;99.90
1978;DHT22;989;53.016;8.346;2023-02-12T09:11:24;9.30;99.90
1978;DHT22;989;53.016;8.346;2023-02-12T09:13:59;9.10;99.90
1978;DHT22;989;53.016;8.346;2023-02-12T09:16:28;9.10;99.90
1978;DHT22;989;53.016;8.346;2023-02-12T09:18:56;9.20;99.90
1978;DHT22;989;53.016;8.346;2023-02-12T09:21:22;9.30;99.90
1978;DHT22;989;53.016;8.346;2023-02-12T09:23:48;9.30;99.90
1978;DHT22;989;53.016;8.346;2023-02-12T09:26:17;9.40;99.90
1978;DHT22;989;53.016;8.346;2023-02-12T09:28:49;9.30;99.90
1978;DHT22;989;53.016;8.346;2023-02-12T09:31:20;9.40;99.90
1978;DHT22;989;53.016;8.346;2023-02-12T09:33:50;9.50;99.90
1978;DHT22;989;53.016;8.346;2023-02-12T09:36:18;9.30;99.90
1978;DHT22;989;53.016;8.346;2023-02-12T09:38:44;9.40;99.90
1978;DHT22;989;53.016;8.346;2023-02-12T09:44:10;9.30;99.90
1978;DHT22;989;53.016;8.346;2023-02-12T09:50:10;9.40;99.90
1978;DHT22;989;53.016;8.346;2023-02-12T09:52:47;9.40;99.90
1978;DHT22;989;53.016;8.346;2023-02-12T09:55:15;9.30;99.90
1978;DHT22;989;53.016;8.346;2023-02-12T09:57:42;9.30;99.90
1978;DHT22;989;53.016;8.346;2023-02-12T10:00:26;9.40;99.90
1978;DHT22;989;53.016;8.346;2023-02-12T10:02:59;9.30;99.90
1978;DHT22;989;53.016;8.346;2023-02-12T10:05:40;9.40;99.90
1978;DHT22;989;53.016;8.346;2023-02-12T10:13:57;9.50;99.90
1978;DHT22;989;53.016;8.346;2023-02-12T10:16:41;9.70;99.90
1978;DHT22;989;53.016;8.346;2023-02-12T10:25:42;9.60;99.90
1978;DHT22;989;53.016;8.346;2023-02-12T10:28:14;9.70;99.90
1978;DHT22;989;53.016;8.346;2023-02-12T10:30:59;9.70;99.90
1978;DHT22;989;53.016;8.346;2023-02-12T10:33:30;9.80;99.90
1978;DHT22;989;53.016;8.346;2023-02-12T10:36:05;9.70;99.90
1978;DHT22;989;53.016;8.346;2023-02-12T10:38:38;9.50;99.90
1978;DHT22;989;53.016;8.346;2023-02-12T10:41:10;9.50;99.90
1978;DHT22;989;53.016;8.346;2023-02-12T10:43:37;9.60;99.90
1978;DHT22;989;53.016;8.346;2023-02-12T10:46:02;9.60;99.90
1978;DHT22;989;53.016;8.346;2023-02-12T10:48:39;9.70;99.90
1978;DHT22;989;53.016;8.346;2023-02-12T10:53:37;9.70;99.90
1978;DHT22;989;53.016;8.346;2023-02-12T10:56:17;9.60;99.90
1978;DHT22;989;53.016;8.346;2023-02-12T10:58:54;9.70;99.90
1978;DHT22;989;53.016;8.346;2023-02-12T11:01:25;9.60;99.90
1978;DHT22;989;53.016;8.346;2023-02-12T11:03:58;9.60;99.90
1978;DHT22;989;53.016;8.346;2023-02-12T11:06:27;9.80;99.90
1978;DHT22;989;53.016;8.346;2023-02-12T11:08:54;9.70;99.90
1978;DHT22;989;53.016;8.346;2023-02-12T11:11:23;9.70;99.90
1978;DHT22;989;53.016;8.346;2023-02-12T11:14:18;9.70;99.90
1978;DHT22;989;53.016;8.346;2023-02-12T11:16:52;9.80;99.90
1978;DHT22;989;53.016;8.346;2023-02-12T11:19:29;9.80;99.90
1978;DHT22;989;53.016;8.346;2023-02-12T11:22:10;9.70;99.90
1978;DHT22;989;53.016;8.346;2023-02-12T11:24:43;9.80;99.90
1978;DHT22;989;53.016;8.346;2023-02-12T11:29:46;9.80;99.90
1978;DHT22;989;53.016;8.346;2023-02-12T11:32:32;9.90;99.90
1978;DHT22;989;53.016;8.346;2023-02-12T11:35:19;10.00;99.90
1978;DHT22;989;53.016;8.346;2023-02-12T11:37:56;10.00;99.90
1978;DHT22;989;53.016;8.346;2023-02-12T11:40:31;9.90;99.90
1978;DHT22;989;53.016;8.346;2023-02-12T11:43:03;9.90;99.90
1978;DHT22;989;53.016;8.346;2023-02-12T11:45:36;9.90;99.90
1978;DHT22;989;53.016;8.346;2023-02-12T11:48:21;9.80;99.90
1978;DHT22;989;53.016;8.346;2023-02-12T11:50:53;9.90;99.90
1978;DHT22;989;53.016;8.346;2023-02-12T11:53:27;9.90;99.90
1978;DHT22;989;53.016;8.346;2023-02-12T11:56:02;10.00;99.90
1978;DHT22;989;53.016;8.346;2023-02-12T11:58:31;10.10;99.90
1978;DHT22;989;53.016;8.346;2023-02-12T12:03:37;10.20;99.90
1978;DHT22;989;53.016;8.346;2023-02-12T12:06:28;10.10;99.90
1978;DHT22;989;53.016;8.346;2023-02-12T12:09:01;10.40;99.90
1978;DHT22;989;53.016;8.346;2023-02-12T12:19:55;10.10;99.90
1978;DHT22;989;53.016;8.346;2023-02-12T12:22:29;10.30;99.90
1978;DHT22;989;53.016;8.346;2023-02-12T12:30:36;10.60;91.00
1978;DHT22;989;53.016;8.346;2023-02-12T12:42:01;10.80;83.50
1978;DHT22;989;53.016;8.346;2023-02-12T12:44:54;11.00;70.60
1978;DHT22;989;53.016;8.346;2023-02-12T12:51:01;10.80;73.00
1978;DHT22;989;53.016;8.346;2023-02-12T13:02:31;10.90;72.90
1978;DHT22;989;53.016;8.346;2023-02-12T13:08:45;11.00;56.60
1978;DHT22;989;53.016;8.346;2023-02-12T13:11:42;11.00;56.80
1978;DHT22;989;53.016;8.346;2023-02-12T13:14:38;10.80;58.90
1978;DHT22;989;53.016;8.346;2023-02-12T13:17:12;10.90;63.30
1978;DHT22;989;53.016;8.346;2023-02-12T13:19:54;10.80;55.50
1978;DHT22;989;53.016;8.346;2023-02-12T13:22:36;10.80;55.50
1978;DHT22;989;53.016;8.346;2023-02-12T13:27:57;11.00;46.20
1978;DHT22;989;53.016;8.346;2023-02-12T13:30:30;11.20;46.60
1978;DHT22;989;53.016;8.346;2023-02-12T13:33:19;11.30;43.60
1978;DHT22;989;53.016;8.346;2023-02-12T13:35:50;11.20;26.70
1978;DHT22;989;53.016;8.346;2023-02-12T13:38:26;11.50;30.80
1978;DHT22;989;53.016;8.346;2023-02-12T13:40:59;11.50;21.40
1978;DHT22;989;53.016;8.346;2023-02-12T13:43:35;11.60;20.60
1978;DHT22;989;53.016;8.346;2023-02-12T13:51:52;11.70;11.30
1978;DHT22;989;53.016;8.346;2023-02-12T13:54:48;11.50;8.70
1978;DHT22;989;53.016;8.346;2023-02-12T13:57:19;11.50;8.30
1978;DHT22;989;53.016;8.346;2023-02-12T13:59:48;11.60;13.00
1978;DHT22;989;53.016;8.346;2023-02-12T14:05:04;11.40;10.70
1978;DHT22;989;53.016;8.346;2023-02-12T14:07:51;11.50;13.50
1978;DHT22;989;53.016;8.346;2023-02-12T14:10:30;11.50;11.70
1978;DHT22;989;53.016;8.346;2023-02-12T14:13:18;11.70;9.50
1978;DHT22;989;53.016;8.346;2023-02-12T14:15:51;11.60;8.10
1978;DHT22;989;53.016;8.346;2023-02-12T14:18:31;11.70;3.50
1978;DHT22;989;53.016;8.346;2023-02-12T14:23:38;11.60;6.30
1978;DHT22;989;53.016;8.346;2023-02-12T14:26:14;11.60;10.30
1978;DHT22;989;53.016;8.346;2023-02-12T14:44:54;11.00;16.10
1978;DHT22;989;53.016;8.346;2023-02-12T14:49:56;11.10;21.20
1978;DHT22;989;53.016;8.346;2023-02-12T14:52:28;11.10;16.00
1978;DHT22;989;53.016;8.346;2023-02-12T14:54:58;11.10;14.00
1978;DHT22;989;53.016;8.346;2023-02-12T14:57:36;11.10;16.80
1978;DHT22;989;53.016;8.346;2023-02-12T15:00:27;11.10;12.50
1978;DHT22;989;53.016;8.346;2023-02-12T15:03:06;11.00;14.90
1978;DHT22;989;53.016;8.346;2023-02-12T15:06:03;11.00;10.10
1978;DHT22;989;53.016;8.346;2023-02-12T15:08:49;11.00;12.80
1978;DHT22;989;53.016;8.346;2023-02-12T15:14:26;11.10;15.00
1978;DHT22;989;53.016;8.346;2023-02-12T15:16:58;10.90;14.00
1978;DHT22;989;53.016;8.346;2023-02-12T15:19:45;11.00;18.80
1978;DHT22;989;53.016;8.346;2023-02-12T15:22:28;11.00;11.10
1978;DHT22;989;53.016;8.346;2023-02-12T15:27:58;11.00;17.60
1978;DHT22;989;53.016;8.346;2023-02-12T15:30:31;10.80;14.90
1978;DHT22;989;53.016;8.346;2023-02-12T15:33:02;10.90;22.60
1978;DHT22;989;53.016;8.346;2023-02-12T15:35:31;10.80;23.90
1978;DHT22;989;53.016;8.346;2023-02-12T15:37:59;10.90;26.50
1978;DHT22;989;53.016;8.346;2023-02-12T15:40:27;10.80;24.00
1978;DHT22;989;53.016;8.346;2023-02-12T15:42:59;10.80;26.20
1978;DHT22;989;53.016;8.346;2023-02-12T15:45:28;10.70;24.90
1978;DHT22;989;53.016;8.346;2023-02-12T15:48:11;10.60;26.40
1978;DHT22;989;53.016;8.346;2023-02-12T15:50:52;10.60;31.80
1978;DHT22;989;53.016;8.346;2023-02-12T15:53:19;10.50;34.00
1978;DHT22;989;53.016;8.346;2023-02-12T15:55:47;10.50;37.50
1978;DHT22;989;53.016;8.346;2023-02-12T15:58:28;10.40;42.30
1978;DHT22;989;53.016;8.346;2023-02-12T16:01:01;10.50;43.50
1978;DHT22;989;53.016;8.346;2023-02-12T16:03:32;10.40;47.10
1978;DHT22;989;53.016;8.346;2023-02-12T16:06:10;10.50;57.30
1978;DHT22;989;53.016;8.346;2023-02-12T16:08:44;10.50;52.80
1978;DHT22;989;53.016;8.346;2023-02-12T16:11:12;10.40;49.60
1978;DHT22;989;53.016;8.346;2023-02-12T16:14:03;10.40;50.30
1978;DHT22;989;53.016;8.346;2023-02-12T16:16:51;10.30;52.40
1978;DHT22;989;53.016;8.346;2023-02-12T16:19:27;10.40;58.10
1978;DHT22;989;53.016;8.346;2023-02-12T16:22:07;10.40;55.60
1978;DHT22;989;53.016;8.346;2023-02-12T16:24:37;10.40;53.10
1978;DHT22;989;53.016;8.346;2023-02-12T16:27:19;10.40;58.00
1978;DHT22;989;53.016;8.346;2023-02-12T16:30:04;10.50;57.90
1978;DHT22;989;53.016;8.346;2023-02-12T16:35:27;10.50;59.30
1978;DHT22;989;53.016;8.346;2023-02-12T16:46:31;10.00;68.00
1978;DHT22;989;53.016;8.346;2023-02-12T16:48:59;10.00;72.20
1978;DHT22;989;53.016;8.346;2023-02-12T16:51:32;9.90;77.20
1978;DHT22;989;53.016;8.346;2023-02-12T16:54:01;9.90;81.10
1978;DHT22;989;53.016;8.346;2023-02-12T16:56:36;9.80;84.70
1978;DHT22;989;53.016;8.346;2023-02-12T16:59:03;9.80;88.90
1978;DHT22;989;53.016;8.346;2023-02-12T17:01:32;9.80;90.80
1978;DHT22;989;53.016;8.346;2023-02-12T17:04:01;9.70;93.00
1978;DHT22;989;53.016;8.346;2023-02-12T17:06:31;9.70;93.60
1978;DHT22;989;53.016;8.346;2023-02-12T17:08:57;9.70;95.70
1978;DHT22;989;53.016;8.346;2023-02-12T17:11:24;9.80;97.50
1978;DHT22;989;53.016;8.346;2023-02-12T17:13:52;9.70;97.00
1978;DHT22;989;53.016;8.346;2023-02-12T17:16:19;9.70;97.50
1978;DHT22;989;53.016;8.346;2023-02-12T17:18:45;9.70;99.10
1978;DHT22;989;53.016;8.346;2023-02-12T17:21:24;9.60;99.90
1978;DHT22;989;53.016;8.346;2023-02-12T17:23:57;9.60;99.90
1978;DHT22;989;53.016;8.346;2023-02-12T17:26:23;9.70;99.90
1978;DHT22;989;53.016;8.346;2023-02-12T17:28:49;9.70;99.90
1978;DHT22;989;53.016;8.346;2023-02-12T17:34:04;9.70;99.90
1978;DHT22;989;53.016;8.346;2023-02-12T17:36:30;9.80;99.90
1978;DHT22;989;53.016;8.346;2023-02-12T17:38:56;9.80;99.90
1978;DHT22;989;53.016;8.346;2023-02-12T17:41:21;9.80;99.90
1978;DHT22;989;53.016;8.346;2023-02-12T17:43:48;9.80;99.90
1978;DHT22;989;53.016;8.346;2023-02-12T17:46:19;9.80;99.90
1978;DHT22;989;53.016;8.346;2023-02-12T17:48:47;9.80;99.90
1978;DHT22;989;53.016;8.346;2023-02-12T17:51:13;9.80;99.90
1978;DHT22;989;53.016;8.346;2023-02-12T17:53:39;9.90;99.90
1978;DHT22;989;53.016;8.346;2023-02-12T17:56:10;9.90;99.90
1978;DHT22;989;53.016;8.346;2023-02-12T17:58:41;9.80;99.90
1978;DHT22;989;53.016;8.346;2023-02-12T18:01:09;9.90;99.90
1978;DHT22;989;53.016;8.346;2023-02-12T18:03:36;9.90;99.90
1978;DHT22;989;53.016;8.346;2023-02-12T18:06:02;9.80;99.90
1978;DHT22;989;53.016;8.346;2023-02-12T18:08:29;9.80;99.90
1978;DHT22;989;53.016;8.346;2023-02-12T18:10:56;9.80;99.90
1978;DHT22;989;53.016;8.346;2023-02-12T18:13:21;9.90;99.90
1978;DHT22;989;53.016;8.346;2023-02-12T18:15:48;9.80;99.90
1978;DHT22;989;53.016;8.346;2023-02-12T18:18:14;9.80;99.90
1978;DHT22;989;53.016;8.346;2023-02-12T18:20:41;9.80;99.90
1978;DHT22;989;53.016;8.346;2023-02-12T18:23:08;9.90;99.90
1978;DHT22;989;53.016;8.346;2023-02-12T18:25:38;9.80;99.90
1978;DHT22;989;53.016;8.346;2023-02-12T18:28:05;9.70;99.90
1978;DHT22;989;53.016;8.346;2023-02-12T18:30:30;9.60;99.90
1978;DHT22;989;53.016;8.346;2023-02-12T18:32:56;9.60;99.90
1978;DHT22;989;53.016;8.346;2023-02-12T18:35:22;9.60;99.90
1978;DHT22;989;53.016;8.346;2023-02-12T18:37:48;9.70;99.90
1978;DHT22;989;53.016;8.346;2023-02-12T18:40:14;9.60;99.90
1978;DHT22;989;53.016;8.346;2023-02-12T18:42:40;9.50;99.90
1978;DHT22;989;53.016;8.346;2023-02-12T18:45:06;9.50;99.90
1978;DHT22;989;53.016;8.346;2023-02-12T18:47:32;9.40;99.90
1978;DHT22;989;53.016;8.346;2023-02-12T18:49:58;9.40;99.90
1978;DHT22;989;53.016;8.346;2023-02-12T18:52:24;9.40;99.90
1978;DHT22;989;53.016;8.346;2023-02-12T18:54:49;9.30;99.90
1978;DHT22;989;53.016;8.346;2023-02-12T18:57:16;9.30;99.90
1978;DHT22;989;53.016;8.346;2023-02-12T18:59:42;9.30;99.90
1978;DHT22;989;53.016;8.346;2023-02-12T19:02:11;9.20;99.90
1978;DHT22;989;53.016;8.346;2023-02-12T19:04:38;9.20;99.90
1978;DHT22;989;53.016;8.346;2023-02-12T19:07:04;9.20;99.90
1978;DHT22;989;53.016;8.346;2023-02-12T19:09:30;9.10;99.90
1978;DHT22;989;53.016;8.346;2023-02-12T19:11:57;9.10;99.90
1978;DHT22;989;53.016;8.346;2023-02-12T19:14:25;9.10;99.90
1978;DHT22;989;53.016;8.346;2023-02-12T19:16:51;9.10;99.90
1978;DHT22;989;53.016;8.346;2023-02-12T19:19:18;9.10;99.90
1978;DHT22;989;53.016;8.346;2023-02-12T19:21:44;9.10;99.90
1978;DHT22;989;53.016;8.346;2023-02-12T19:24:12;9.10;99.90
1978;DHT22;989;53.016;8.346;2023-02-12T19:26:40;9.10;99.90
1978;DHT22;989;53.016;8.346;2023-02-12T19:29:08;9.10;99.90
1978;DHT22;989;53.016;8.346;2023-02-12T19:31:37;9.10;99.90
1978;DHT22;989;53.016;8.346;2023-02-12T19:34:09;9.00;99.90